College Station, TX

10:05 PM CDT on April 27, 2015 (GMT -0500)
K3PSW Emerald Forest | | Change Station
CLOSE
Current Station
Personal Weather Station
Location: College Station, TX
Elevation: 297 ft
Nearby Weather Stations

Elev 297 ft 30.60 °N, 96.28 °W | Updated 16 seconds ago

Mostly Cloudy
Mostly Cloudy
71.2 °F
Feels Like 70 °F
N
0.0
Wind Variable Wind from East
Gusts 2.0 mph

Today
High -- | Low -- °F
--% Chance of Precip.
Yesterday
High -- | Low -- °F
Precip. -- in
6:45 AM 8:00 PM
Waxing Gibbous, 70% visible
Pressure 29.75 in
Visibility 10.0 miles
Clouds Mostly Cloudy 3100 ft
Heat Index 70 °F
Dew Point 67 °F
Humidity 85%
Rainfall 1.07 in
Snow Depth Not available.
UV 0 out of 12
Pollen .50 out of 12
Air Quality Not available.
Flu Activity Local Activity
METAR KCLL 280253Z AUTO 08007KT 10SM BKN031 22/19 A2976 RMK AO2 SLP073 T02220189 51029

More Conditions Fewer Conditions

Pressure 29.75 in
Visibility 10.0 miles
Clouds Mostly Cloudy 3100 ft
Heat Index 70 °F
Dew Point 67 °F
Humidity 85%
Rainfall 1.07 in
Snow Depth Not available.
UV 0 out of 12
Pollen .50 out of 12
Air Quality Not available.
Flu Activity Local Activity
METAR KCLL 280253Z AUTO 08007KT 10SM BKN031 22/19 A2976 RMK AO2 SLP073 T02220189 51029

More Conditions Fewer Conditions

10-Day Weather Forecast

Almanac

Astronomy

Apr. 27, 2015 Rise Set
Actual Time
Civil Twilight
Nautical Twilight
Astronomical Twilight
Moon
Length of Visible Light
Length of Day
Tomorrow will be .
, % of the Moon is Illuminated

Today's Extremes

State Highs State Lows

Community

WunderPhotos

Upload Photos

1,817,533 photos uploaded!

WunderBlogs® & News

Nearby

Air Quality

  Air Quality AQ Index Pollutant
Not available.

Snow Depth

Station Depth Elevation

Earthquake Activity

City Distance Mag. Time & Date
Minimum magnitude displayed is 2.5.

Coastal Water Temperatures

Place Temperature

Stations

Nearby Weather Stations

Station Location Temp. Windchill Dew Point Humidity Wind Precip. Elev Updated Type